Time;durP1;ratioP1;P1;durP2;ratioP2;P2;SDS_P1;SDS_P2;PMS_P1;PMS_P2;Temp;Humidity;BMP_temperature;BMP_pressure;BME280_temperature;BME280_humidity;BME280_pressure;Samples;Min_cycle;Max_cycle;Signal;HPM_P1;HPM_P2
2022/01/03 00:01:24;;;;;;;11.60;7.40;;;;;;;11.19;80.92;100000.09;5080248;28;20461;-67
2022/01/03 00:03:49;;;;;;;16.97;7.53;;;;;;;10.81;82.13;100006.34;5079876;28;20415;-67
2022/01/03 00:06:15;;;;;;;12.13;7.27;;;;;;;10.81;82.76;100005.44;5080784;28;20203;-67
2022/01/03 00:08:42;;;;;;;10.10;7.70;;;;;;;10.28;84.66;100005.53;5079295;28;20239;-66
2022/01/03 00:11:10;;;;;;;11.90;7.40;;;;;;;10.57;83.58;100007.28;5079297;28;20735;-67
2022/01/03 00:13:35;;;;;;;11.43;7.37;;;;;;;10.50;83.89;99985.56;5080090;28;20460;-67
2022/01/03 00:16:01;;;;;;;10.33;7.30;;;;;;;10.70;83.60;99982.91;5079067;28;20415;-70
2022/01/03 00:18:26;;;;;;;14.30;8.13;;;;;;;10.36;84.78;99987.31;5079753;28;20176;-66
2022/01/03 00:20:59;;;;;;;9.93;7.43;;;;;;;10.10;85.57;99985.59;5080134;28;20169;-66
2022/01/03 00:23:30;;;;;;;9.27;7.87;;;;;;;10.37;84.24;99989.91;5079686;28;20173;-66
2022/01/03 00:25:59;;;;;;;7.90;6.40;;;;;;;10.04;84.75;99977.75;5078959;28;20403;-67
2022/01/03 00:28:31;;;;;;;12.37;6.57;;;;;;;10.22;83.96;99974.28;5079519;28;20433;-66
2022/01/03 00:30:57;;;;;;;11.50;6.90;;;;;;;10.18;83.94;99968.22;5078947;28;20382;-67
2022/01/03 00:33:25;;;;;;;10.97;5.20;;;;;;;9.78;83.88;99969.09;5079755;28;20858;-67
2022/01/03 00:35:53;;;;;;;9.23;6.90;;;;;;;10.22;83.42;99959.53;5078915;28;20454;-67
2022/01/03 00:38:19;;;;;;;6.90;4.43;;;;;;;9.90;81.91;99962.16;5079915;28;20669;-67
2022/01/03 00:40:45;;;;;;;4.87;4.37;;;;;;;9.91;82.62;99961.28;5079425;28;20390;-66
2022/01/03 00:43:10;;;;;;;5.10;4.00;;;;;;;9.80;81.59;99957.81;5078561;28;20173;-66
2022/01/03 00:45:35;;;;;;;7.43;4.40;;;;;;;9.78;82.54;99952.59;5079608;28;20161;-66
2022/01/03 00:48:08;;;;;;;6.37;4.13;;;;;;;9.91;81.70;99948.28;5079135;28;20213;-66
2022/01/03 00:50:34;;;;;;;4.00;3.57;;;;;;;9.62;83.67;99941.34;5079362;28;20176;-66
2022/01/03 00:52:59;;;;;;;6.40;3.87;;;;;;;9.67;83.40;99941.31;5079391;28;20709;-68
2022/01/03 00:55:25;;;;;;;7.10;3.80;;;;;;;9.75;82.84;99948.25;5079451;28;20199;-69
2022/01/03 00:58:05;;;;;;;3.60;3.40;;;;;;;9.82;82.03;99940.47;5079936;28;20531;-68
2022/01/03 01:00:35;;;;;;;4.13;3.50;;;;;;;9.75;82.42;99942.19;5079350;28;20408;-66
2022/01/03 01:03:10;;;;;;;4.93;3.27;;;;;;;9.56;82.84;99942.19;5079292;28;20411;-66
2022/01/03 01:05:37;;;;;;;3.40;3.10;;;;;;;9.47;83.54;99941.31;5078984;28;20381;-66
2022/01/03 01:08:03;;;;;;;5.10;3.10;;;;;;;9.76;82.66;99944.78;5078733;28;20429;-68
2022/01/03 01:10:31;;;;;;;3.33;3.03;;;;;;;9.73;82.96;99938.75;5077805;28;20652;-67
2022/01/03 01:12:57;;;;;;;3.00;2.70;;;;;;;9.67;83.51;99943.94;5079063;28;20494;-66
2022/01/03 01:15:24;;;;;;;3.83;2.70;;;;;;;9.53;83.81;99946.53;5080636;28;20378;-66
2022/01/03 01:17:52;;;;;;;3.37;2.53;;;;;;;9.35;85.31;99953.44;5078643;28;20502;-66
2022/01/03 01:20:20;;;;;;;5.30;3.57;;;;;;;9.38;84.66;99943.03;5078708;28;20407;-66
2022/01/03 01:22:45;;;;;;;2.43;2.23;;;;;;;9.47;84.18;99941.31;5078318;28;20390;-66
2022/01/03 01:27:47;;;;;;;3.93;2.60;;;;;;;9.37;85.29;99961.25;5077819;28;20496;-68
2022/01/03 01:30:13;;;;;;;3.30;2.50;;;;;;;9.51;85.31;99953.44;5078386;28;20390;-67
2022/01/03 01:32:42;;;;;;;3.00;2.50;;;;;;;9.55;85.77;99961.28;5078406;28;20464;-66
2022/01/03 01:35:07;;;;;;;2.83;2.60;;;;;;;9.39;86.18;99980.31;5079134;28;20230;-66
2022/01/03 01:37:33;;;;;;;3.90;2.37;;;;;;;9.63;84.80;99968.22;5078426;28;20393;-66
2022/01/03 01:39:58;;;;;;;2.70;2.50;;;;;;;9.57;85.07;99976.88;5077628;28;20165;-67
2022/01/03 01:42:24;;;;;;;3.33;2.90;;;;;;;9.60;84.41;99975.13;5078785;28;20519;-67
2022/01/03 01:44:53;;;;;;;4.53;2.97;;;;;;;9.77;85.25;99996.00;5077752;28;20244;-66
2022/01/03 01:47:20;;;;;;;4.30;3.30;;;;;;;10.10;83.75;100007.28;5078402;28;20242;-66
2022/01/03 01:49:47;;;;;;;5.00;3.17;;;;;;;9.95;84.18;100012.50;5078137;28;20819;-66
2022/01/03 01:52:18;;;;;;;6.83;3.30;;;;;;;10.34;81.99;100015.09;5078071;28;20413;-67
2022/01/03 01:54:54;;;;;;;3.40;3.10;;;;;;;9.95;83.16;100028.13;5078082;28;20438;-67
2022/01/03 01:57:21;;;;;;;3.63;3.10;;;;;;;10.17;83.24;100038.53;5078581;28;20795;-66
2022/01/03 02:00:10;;;;;;;3.70;3.40;;;;;;;9.62;84.62;100048.03;5078232;28;20386;-67
2022/01/03 02:03:03;;;;;;;3.63;3.33;;;;;;;9.59;84.28;100051.50;5078152;28;20418;-67
2022/01/03 02:05:40;;;;;;;4.23;3.20;;;;;;;9.19;85.36;100064.34;5078214;28;20385;-66
2022/01/03 02:08:17;;;;;;;4.20;3.30;;;;;;;9.44;85.11;100074.84;5078060;28;20433;-66
2022/01/03 02:10:45;;;;;;;3.40;3.10;;;;;;;9.57;84.14;100071.44;5077406;28;20410;-67
2022/01/03 02:13:16;;;;;;;4.60;3.30;;;;;;;9.53;85.25;100084.44;5077242;28;20396;-67
2022/01/03 02:15:45;;;;;;;3.67;3.37;;;;;;;8.98;86.40;100093.72;5078014;28;20677;-67
2022/01/03 02:18:11;;;;;;;3.67;3.37;;;;;;;9.56;85.56;100098.31;5077923;28;20403;-67
2022/01/03 02:20:36;;;;;;;3.20;2.90;;;;;;;9.75;84.33;100107.03;5078114;28;20477;-67
2022/01/03 02:23:02;;;;;;;5.30;3.03;;;;;;;9.42;83.98;100115.63;5083412;28;20165;-67
2022/01/03 02:25:27;;;;;;;6.33;3.10;;;;;;;9.39;84.20;100121.66;5082114;28;20407;-66
2022/01/03 02:27:53;;;;;;;3.30;2.83;;;;;;;9.07;85.23;100130.16;5082060;28;20212;-66
2022/01/03 02:30:22;;;;;;;3.30;2.50;;;;;;;9.17;84.74;100120.69;5082507;28;20172;-66
2022/01/03 02:32:47;;;;;;;2.67;2.47;;;;;;;9.09;84.56;100143.16;5081765;28;20385;-66
2022/01/03 02:35:13;;;;;;;3.10;2.80;;;;;;;9.17;84.32;100132.81;5081861;28;20401;-67
2022/01/03 02:37:39;;;;;;;3.17;2.70;;;;;;;9.23;84.43;100135.47;5082356;28;20165;-67
2022/01/03 02:40:10;;;;;;;3.20;2.90;;;;;;;9.09;84.83;100141.47;5081624;28;20411;-67
2022/01/03 02:42:35;;;;;;;3.50;2.83;;;;;;;9.10;85.14;100148.38;5081383;28;20218;-67
2022/01/03 02:45:09;;;;;;;3.17;2.77;;;;;;;9.33;83.75;100145.03;5082050;28;20783;-68
2022/01/03 02:47:35;;;;;;;3.20;2.90;;;;;;;9.46;83.81;100135.59;5081383;28;20200;-67
2022/01/03 02:50:01;;;;;;;3.53;3.23;;;;;;;9.50;83.47;100147.75;5081349;28;20401;-67
2022/01/03 02:52:27;;;;;;;4.50;2.67;;;;;;;9.62;83.07;100149.53;5081169;28;20806;-66
2022/01/03 02:54:52;;;;;;;4.10;3.20;;;;;;;9.35;83.83;100147.66;5081151;28;20467;-67
2022/01/03 02:57:24;;;;;;;2.80;2.60;;;;;;;9.30;83.98;100147.63;5082269;28;20176;-67
2022/01/03 02:59:56;;;;;;;4.63;2.60;;;;;;;9.06;83.82;100158.75;5083983;28;21370;-68
2022/01/03 03:02:23;;;;;;;5.00;3.00;;;;;;;9.39;83.62;100155.50;5082174;28;20407;-66
2022/01/03 03:05:00;;;;;;;3.97;2.63;;;;;;;8.78;85.25;100153.34;5080822;28;20447;-66
2022/01/03 03:07:27;;;;;;;5.40;2.70;;;;;;;9.19;84.16;100157.13;5080982;28;20486;-66
2022/01/03 03:09:53;;;;;;;4.70;3.17;;;;;;;9.27;83.85;100165.84;5081073;28;20421;-66
2022/01/03 03:12:19;;;;;;;3.10;2.60;;;;;;;8.84;85.78;100152.56;5081071;28;20522;-66
2022/01/03 03:14:45;;;;;;;5.20;3.30;;;;;;;9.23;84.51;100164.09;5081459;28;20420;-67
2022/01/03 03:17:10;;;;;;;4.37;3.13;;;;;;;8.97;84.73;100158.69;5080067;28;20233;-67
2022/01/03 03:20:01;;;;;;;6.53;3.10;;;;;;;8.97;85.62;100164.78;5080990;28;20538;-66
2022/01/03 03:22:28;;;;;;;4.70;2.80;;;;;;;8.69;86.30;100169.75;5082939;28;20180;-68
2022/01/03 03:25:06;;;;;;;6.30;2.87;;;;;;;8.75;86.77;100169.81;5081017;28;20407;-68
2022/01/03 03:27:32;;;;;;;5.60;3.63;;;;;;;8.98;85.76;100160.44;5080753;28;20773;-67
2022/01/03 03:29:57;;;;;;;5.33;3.83;;;;;;;8.96;86.11;100167.34;5080543;28;20518;-67
2022/01/03 03:32:25;;;;;;;4.37;3.97;;;;;;;8.71;87.41;100172.38;5080586;28;20411;-67
2022/01/03 03:34:50;;;;;;;6.17;4.20;;;;;;;8.99;86.12;100173.44;5081107;28;20180;-66
2022/01/03 03:37:16;;;;;;;7.00;4.03;;;;;;;9.01;85.37;100170.84;5082687;28;20403;-66
2022/01/03 03:39:42;;;;;;;5.90;4.03;;;;;;;8.98;86.15;100160.44;5080549;28;20176;-67
2022/01/03 03:42:09;;;;;;;8.20;4.10;;;;;;;8.77;86.65;100160.28;5080411;28;20160;-67
2022/01/03 03:44:35;;;;;;;7.63;4.30;;;;;;;8.62;86.77;100167.09;5080919;28;20439;-66
2022/01/03 03:47:01;;;;;;;4.77;4.13;;;;;;;8.87;86.89;100170.78;5079794;28;20405;-66
2022/01/03 03:49:26;;;;;;;5.90;3.83;;;;;;;9.03;86.60;100170.00;5080539;28;20264;-66
2022/01/03 03:51:51;;;;;;;4.00;3.53;;;;;;;8.98;85.44;100160.44;5080872;28;20536;-67
2022/01/03 03:54:17;;;;;;;6.53;3.97;;;;;;;9.27;85.18;100169.28;5080069;28;20224;-66
2022/01/03 03:56:43;;;;;;;7.40;4.20;;;;;;;9.29;85.63;100169.31;5080317;28;20264;-66
2022/01/03 03:59:08;;;;;;;7.17;4.33;;;;;;;8.93;85.92;100169.09;5080661;28;20234;-67
2022/01/03 04:01:33;;;;;;;9.33;4.50;;;;;;;9.21;86.13;100165.78;5080270;28;20179;-66
2022/01/03 04:03:59;;;;;;;7.53;4.60;;;;;;;8.73;87.02;100161.13;5080172;28;20192;-68
2022/01/03 04:06:24;;;;;;;7.40;4.47;;;;;;;9.27;85.55;100156.28;5081028;28;20173;-68
2022/01/03 04:08:49;;;;;;;8.13;4.80;;;;;;;9.01;85.71;100161.34;5080395;28;20212;-66
2022/01/03 04:11:15;;;;;;;5.43;4.60;;;;;;;9.17;85.53;100157.09;5080367;28;20226;-68
2022/01/03 04:13:40;;;;;;;7.07;4.73;;;;;;;9.14;86.07;100159.69;5080848;28;20165;-66
2022/01/03 04:16:06;;;;;;;11.00;4.60;;;;;;;9.19;85.68;100164.94;5079949;28;20177;-66
2022/01/03 04:18:32;;;;;;;7.30;4.10;;;;;;;9.05;86.06;100162.22;5079863;28;20165;-66
2022/01/03 04:20:57;;;;;;;12.00;5.90;;;;;;;9.06;86.80;100164.81;5080246;28;20834;-66
2022/01/03 04:23:23;;;;;;;9.13;5.30;;;;;;;9.36;85.37;100163.28;5079554;28;20200;-66
2022/01/03 04:25:48;;;;;;;10.27;5.10;;;;;;;8.91;87.24;100155.19;5080209;28;20177;-67
2022/01/03 04:28:13;;;;;;;10.77;5.17;;;;;;;9.19;86.06;100147.56;5079909;28;20229;-66
2022/01/03 04:30:38;;;;;;;9.20;5.83;;;;;;;9.65;84.46;100162.53;5079500;28;20184;-67
2022/01/03 04:33:04;;;;;;;8.03;4.40;;;;;;;9.18;85.66;100160.56;5079435;28;20176;-66
2022/01/03 04:35:29;;;;;;;8.10;4.57;;;;;;;9.15;86.72;100163.16;5080148;28;20436;-66
2022/01/03 04:37:54;;;;;;;8.40;4.93;;;;;;;9.38;85.30;100155.50;5079400;28;20553;-66
2022/01/03 04:40:20;;;;;;;10.40;4.70;;;;;;;9.19;86.94;100163.19;5079260;28;20180;-66
2022/01/03 04:42:45;;;;;;;10.17;4.30;;;;;;;8.98;87.27;100156.09;5079746;28;20189;-66
2022/01/03 04:45:10;;;;;;;7.13;4.93;;;;;;;9.05;87.21;100168.31;5079027;28;20196;-67
2022/01/03 04:47:36;;;;;;;12.30;5.40;;;;;;;9.20;88.10;100166.63;5078576;28;20275;-67
2022/01/03 04:50:01;;;;;;;8.60;5.00;;;;;;;9.35;87.48;100158.06;5079668;28;20207;-66
2022/01/03 04:52:26;;;;;;;10.20;4.80;;;;;;;9.27;86.94;100163.25;5078281;28;20547;-66
2022/01/03 04:54:52;;;;;;;9.77;5.00;;;;;;;8.93;88.32;100169.09;5078892;28;20629;-66
2022/01/03 04:57:17;;;;;;;5.67;3.77;;;;;;;9.17;88.22;100166.63;5079620;28;20169;-66
2022/01/03 04:59:42;;;;;;;11.27;4.80;;;;;;;9.08;88.19;100164.84;5079516;28;20187;-68
2022/01/03 05:02:08;;;;;;;12.33;5.47;;;;;;;9.19;88.35;100160.59;5081048;28;20173;-67
2022/01/03 05:04:34;;;;;;;10.47;5.10;;;;;;;9.02;88.89;100160.47;5081309;28;20165;-67
2022/01/03 05:06:59;;;;;;;12.23;4.67;;;;;;;9.02;88.60;100151.81;5078519;28;20206;-66
2022/01/03 05:09:24;;;;;;;11.53;5.13;;;;;;;9.50;87.20;100154.66;5079055;28;20430;-66
2022/01/03 05:11:50;;;;;;;11.60;4.67;;;;;;;9.02;88.50;100155.25;5078509;28;20169;-66
2022/01/03 05:14:15;;;;;;;9.57;4.57;;;;;;;9.17;87.46;100153.63;5077622;28;20164;-66
2022/01/03 05:16:40;;;;;;;10.57;4.67;;;;;;;9.09;89.00;100164.88;5078899;28;20181;-67
2022/01/03 05:19:06;;;;;;;11.77;4.93;;;;;;;9.43;87.18;100151.16;5079294;28;20244;-67
2022/01/03 05:21:31;;;;;;;15.57;5.50;;;;;;;9.07;88.70;100158.78;5078503;28;20183;-67
2022/01/03 05:23:56;;;;;;;13.60;5.30;;;;;;;9.67;86.03;100152.13;5078678;28;20538;-66
2022/01/03 05:26:21;;;;;;;12.67;5.30;;;;;;;9.16;88.25;100152.78;5079339;28;20204;-67
2022/01/03 05:28:47;;;;;;;10.37;3.93;;;;;;;9.17;89.39;100151.88;5078681;28;20307;-67
2022/01/03 05:31:13;;;;;;;14.63;5.37;;;;;;;9.30;88.70;100155.44;5078502;28;20173;-67
2022/01/03 05:33:38;;;;;;;9.73;4.27;;;;;;;9.27;87.98;100148.50;5079102;28;20175;-67
2022/01/03 05:36:04;;;;;;;17.00;5.07;;;;;;;9.12;88.63;100157.94;5078728;28;20389;-67
2022/01/03 05:38:30;;;;;;;15.57;5.50;;;;;;;8.92;89.45;100150.88;5078647;28;20177;-67
2022/01/03 05:40:55;;;;;;;13.37;5.23;;;;;;;9.13;89.07;100154.47;5078924;28;20173;-67
2022/01/03 05:43:21;;;;;;;13.20;5.07;;;;;;;9.20;88.63;100153.63;5078283;28;20396;-67
2022/01/03 05:45:46;;;;;;;17.60;5.40;;;;;;;9.20;87.62;100157.13;5077877;28;20176;-66
2022/01/03 05:48:11;;;;;;;12.90;5.40;;;;;;;9.28;87.26;100164.94;5078589;28;20301;-67
2022/01/03 05:50:37;;;;;;;16.80;4.60;;;;;;;9.38;86.81;100153.75;5077497;28;20176;-67
2022/01/03 05:53:02;;;;;;;11.50;4.63;;;;;;;9.47;85.93;100158.13;5078134;28;20256;-67
2022/01/03 05:55:28;;;;;;;18.53;5.73;;;;;;;9.40;86.25;100154.63;5078531;28;20259;-66
2022/01/03 05:57:54;;;;;;;11.23;5.10;;;;;;;9.17;87.38;100164.88;5077668;28;20496;-66
2022/01/03 06:00:20;;;;;;;17.13;5.17;;;;;;;9.33;86.43;100158.03;5078124;28;20255;-66
2022/01/03 06:02:46;;;;;;;13.73;5.10;;;;;;;9.36;86.87;100158.09;5078371;28;20629;-67
2022/01/03 06:07:57;;;;;;;7.77;4.20;;;;;;;9.09;88.08;100174.38;5078226;28;20262;-66
2022/01/03 06:10:23;;;;;;;12.53;5.03;;;;;;;9.15;87.96;100176.16;5078245;28;20650;-68
2022/01/03 06:12:48;;;;;;;14.67;5.37;;;;;;;9.46;86.58;100178.91;5077137;28;20207;-66
2022/01/03 06:15:15;;;;;;;16.10;5.80;;;;;;;9.54;86.85;100175.50;5078744;28;20378;-67
2022/01/03 06:17:41;;;;;;;13.73;5.67;;;;;;;9.09;88.13;100174.38;5078111;28;20442;-67
2022/01/03 06:20:07;;;;;;;11.80;5.00;;;;;;;9.24;87.22;100181.41;5077976;28;20415;-66
2022/01/03 06:22:32;;;;;;;16.13;5.90;;;;;;;9.42;86.90;100170.25;5078001;28;20485;-68
2022/01/03 06:24:57;;;;;;;15.20;5.77;;;;;;;9.34;87.95;100170.19;5077753;28;20498;-66
2022/01/03 06:27:23;;;;;;;21.43;5.80;;;;;;;9.06;87.93;100174.38;5077686;28;20208;-67
2022/01/03 06:29:48;;;;;;;13.53;5.03;;;;;;;9.34;86.76;100183.22;5078231;28;20184;-68
2022/01/03 06:32:13;;;;;;;16.13;5.47;;;;;;;9.50;86.18;100175.47;5077660;28;20179;-66
2022/01/03 06:34:39;;;;;;;11.93;5.37;;;;;;;9.17;87.15;100175.28;5077921;28;20277;-66
2022/01/03 06:37:04;;;;;;;15.83;6.80;;;;;;;9.34;86.80;100175.41;5078309;28;20169;-67
2022/01/03 06:39:29;;;;;;;14.63;5.30;;;;;;;9.50;85.34;100167.66;5077850;28;20177;-66
2022/01/03 06:41:54;;;;;;;14.53;5.70;;;;;;;9.53;84.80;100176.38;5077586;28;20195;-67
2022/01/03 06:44:20;;;;;;;13.10;5.57;;;;;;;9.30;85.42;100184.06;5078027;28;20173;-66
2022/01/03 06:46:47;;;;;;;18.87;6.30;;;;;;;9.76;84.32;100180.81;5077677;28;20184;-66
2022/01/03 06:49:13;;;;;;;17.23;5.20;;;;;;;9.34;85.34;100178.00;5077865;28;20293;-66
2022/01/03 06:51:38;;;;;;;17.40;5.67;;;;;;;9.23;85.60;100183.16;5078085;28;20431;-67
2022/01/03 06:54:05;;;;;;;15.77;6.37;;;;;;;9.50;84.95;100178.06;5077238;28;20290;-67
2022/01/03 06:56:31;;;;;;;17.97;5.73;;;;;;;9.06;86.50;100182.16;5077688;28;20215;-66
2022/01/03 06:58:56;;;;;;;23.00;6.10;;;;;;;9.28;85.32;100175.34;5078296;28;20407;-66
2022/01/03 07:01:21;;;;;;;18.40;5.97;;;;;;;9.25;85.14;100185.75;5077733;28;20177;-67
2022/01/03 07:03:47;;;;;;;20.10;6.07;;;;;;;9.49;84.43;100177.22;5077901;28;20188;-66
2022/01/03 07:06:12;;;;;;;16.13;5.83;;;;;;;9.64;83.86;100186.81;5080776;28;20478;-66
2022/01/03 07:08:37;;;;;;;15.27;5.60;;;;;;;9.58;84.48;100186.81;5079702;28;20521;-66
2022/01/03 07:11:03;;;;;;;15.87;5.40;;;;;;;9.43;84.71;100193.66;5081869;28;20176;-68
2022/01/03 07:13:30;;;;;;;17.33;6.93;;;;;;;9.72;83.03;100192.06;5081891;28;20445;-69
2022/01/03 07:18:59;;;;;;;13.60;5.57;;;;;;;9.53;83.99;100185.91;5082024;28;20392;-68
2022/01/03 07:21:28;;;;;;;13.30;5.70;;;;;;;9.39;84.05;100198.81;5081689;28;20401;-66
2022/01/03 07:23:54;;;;;;;17.60;7.13;;;;;;;9.19;84.21;100185.72;5080122;28;20675;-66
2022/01/03 07:26:20;;;;;;;13.83;5.10;;;;;;;9.46;84.00;100192.81;5080857;28;20480;-66
2022/01/03 07:28:45;;;;;;;19.47;5.60;;;;;;;9.46;83.83;100194.53;5080761;28;20774;-67
2022/01/03 07:31:11;;;;;;;15.20;5.43;;;;;;;9.53;84.14;100194.59;5081354;28;20176;-66
2022/01/03 07:33:36;;;;;;;19.73;5.90;;;;;;;9.47;84.16;100194.56;5080656;28;20177;-66
2022/01/03 07:36:01;;;;;;;13.00;5.57;;;;;;;9.34;83.88;100203.16;5080475;28;20181;-66
2022/01/03 07:38:27;;;;;;;16.13;5.67;;;;;;;9.38;84.46;100203.16;5080880;28;20179;-66
2022/01/03 07:40:52;;;;;;;19.77;5.33;;;;;;;9.13;84.77;100190.88;5080652;28;20177;-67
2022/01/03 07:43:18;;;;;;;18.83;5.30;;;;;;;9.43;83.91;100208.38;5080696;28;20226;-65
2022/01/03 07:45:43;;;;;;;17.03;5.60;;;;;;;9.47;83.71;100206.69;5080985;28;20192;-67
2022/01/03 07:48:08;;;;;;;13.70;4.80;;;;;;;9.53;83.82;100202.38;5080483;28;20321;-66
2022/01/03 07:50:34;;;;;;;16.80;5.37;;;;;;;9.58;83.20;100199.81;5080226;28;20255;-68
2022/01/03 07:53:00;;;;;;;18.90;7.40;;;;;;;9.45;84.05;100211.88;5080472;28;20184;-67
2022/01/03 07:55:26;;;;;;;13.63;4.47;;;;;;;9.25;84.42;100206.56;5080220;28;20199;-67
2022/01/03 07:57:52;;;;;;;12.20;4.63;;;;;;;8.99;86.06;100204.66;5080212;28;20415;-66
2022/01/03 08:00:17;;;;;;;14.00;5.30;;;;;;;9.25;84.44;100198.75;5080334;28;20461;-67
2022/01/03 08:02:43;;;;;;;15.90;5.30;;;;;;;9.29;84.19;100199.66;5080037;28;20546;-67
2022/01/03 08:05:11;;;;;;;18.37;6.00;;;;;;;9.22;84.90;100211.75;5080358;28;20172;-67
2022/01/03 08:07:36;;;;;;;20.90;5.83;;;;;;;8.97;85.47;100206.38;5080009;28;20209;-67
2022/01/03 08:10:04;;;;;;;18.03;6.67;;;;;;;9.22;84.78;100206.53;5080286;28;20557;-67
2022/01/03 08:12:30;;;;;;;14.83;5.73;;;;;;;9.31;84.25;100211.81;5080232;28;20177;-67
2022/01/03 08:14:55;;;;;;;16.13;6.30;;;;;;;9.48;84.10;100205.84;5079863;28;20763;-67
2022/01/03 08:17:20;;;;;;;18.13;5.43;;;;;;;9.06;83.90;100203.81;5079961;28;20169;-66
2022/01/03 08:19:45;;;;;;;17.90;5.37;;;;;;;9.10;84.05;100205.59;5080142;28;20476;-66
2022/01/03 08:22:11;;;;;;;16.33;6.60;;;;;;;9.25;83.53;100216.97;5079587;28;20260;-67
2022/01/03 08:24:36;;;;;;;17.53;5.77;;;;;;;9.34;83.75;100221.38;5079859;28;20165;-67
2022/01/03 08:27:02;;;;;;;14.40;5.47;;;;;;;9.16;83.50;100201.28;5079945;28;20169;-67
2022/01/03 08:29:27;;;;;;;16.87;7.50;;;;;;;9.45;82.59;100214.50;5079621;28;20177;-67
2022/01/03 08:31:52;;;;;;;17.07;6.23;;;;;;;9.59;82.21;100210.25;5079745;28;20173;-67
2022/01/03 08:34:18;;;;;;;12.70;5.53;;;;;;;9.12;83.01;100210.81;5079713;28;20180;-69
2022/01/03 08:36:43;;;;;;;11.80;4.90;;;;;;;9.35;82.56;100208.38;5079434;28;20184;-66
2022/01/03 08:39:09;;;;;;;20.33;6.00;;;;;;;9.71;81.96;100209.41;5079746;28;20212;-67
2022/01/03 08:41:34;;;;;;;16.27;6.83;;;;;;;9.31;83.67;100206.63;5080011;28;20174;-66
2022/01/03 08:44:00;;;;;;;14.77;5.60;;;;;;;9.54;82.93;100213.66;5078533;28;20261;-66
2022/01/03 08:46:25;;;;;;;15.63;5.20;;;;;;;9.45;83.18;100217.09;5080831;28;20239;-67
2022/01/03 08:48:52;;;;;;;22.43;6.30;;;;;;;9.30;83.63;100220.47;5079665;28;20189;-67
2022/01/03 08:51:17;;;;;;;24.17;6.80;;;;;;;9.24;83.27;100212.63;5079237;28;20546;-67
2022/01/03 08:53:42;;;;;;;14.17;5.07;;;;;;;9.60;82.87;100208.50;5078899;28;20475;-67
2022/01/03 08:56:08;;;;;;;12.10;5.50;;;;;;;9.57;81.72;100216.28;5078912;28;20322;-67
2022/01/03 08:58:33;;;;;;;16.87;5.50;;;;;;;9.71;81.73;100206.81;5078992;28;20260;-66
2022/01/03 09:00:59;;;;;;;17.30;6.37;;;;;;;9.86;80.94;100220.75;5078990;28;20180;-68
2022/01/03 09:03:24;;;;;;;16.30;6.23;;;;;;;9.67;81.71;100217.19;5078214;28;20256;-66
2022/01/03 09:05:49;;;;;;;17.07;7.03;;;;;;;10.05;80.87;100206.06;5078895;28;20180;-66
2022/01/03 09:08:16;;;;;;;21.60;6.13;;;;;;;9.80;81.38;100205.13;5078652;28;20451;-66
2022/01/03 09:10:42;;;;;;;16.57;5.20;;;;;;;9.92;80.82;100205.16;5079834;28;20233;-67
2022/01/03 09:13:08;;;;;;;15.63;5.83;;;;;;;10.03;80.61;100207.81;5079532;28;20415;-67
2022/01/03 09:15:33;;;;;;;15.53;5.20;;;;;;;9.64;82.33;100214.59;5078995;28;20452;-66
2022/01/03 09:17:59;;;;;;;11.40;5.10;;;;;;;9.50;83.67;100207.59;5078019;28;20530;-66
2022/01/03 09:20:24;;;;;;;15.43;6.47;;;;;;;9.50;83.56;100197.19;5078721;28;20247;-67
2022/01/03 09:22:52;;;;;;;14.80;5.37;;;;;;;9.91;82.56;100203.44;5078453;28;20173;-67
2022/01/03 09:30:35;;;;;;;17.37;5.70;;;;;;;9.81;81.77;100207.75;5078765;28;20188;-67
2022/01/03 09:33:00;;;;;;;13.43;5.63;;;;;;;9.58;83.53;100218.91;5077671;28;20390;-66
2022/01/03 09:35:26;;;;;;;15.77;5.70;;;;;;;9.29;84.42;100203.13;5078488;28;20415;-67
2022/01/03 09:37:51;;;;;;;12.20;5.27;;;;;;;9.44;84.63;100207.53;5078845;28;20165;-67
2022/01/03 09:40:17;;;;;;;17.53;5.77;;;;;;;9.45;84.42;100206.69;5078438;28;20262;-66
2022/01/03 09:42:44;;;;;;;23.03;6.00;;;;;;;9.46;84.49;100207.53;5077533;28;20457;-66
2022/01/03 09:45:13;;;;;;;17.80;5.60;;;;;;;9.52;84.45;100210.19;5078096;28;20168;-66
2022/01/03 09:47:42;;;;;;;12.50;6.10;;;;;;;9.39;85.12;100215.31;5078263;28;20421;-66
2022/01/03 09:50:09;;;;;;;13.13;5.07;;;;;;;9.31;85.74;100208.31;5078246;28;20403;-67
2022/01/03 09:52:36;;;;;;;16.40;5.57;;;;;;;9.78;83.96;100206.00;5077879;28;20419;-67
2022/01/03 09:55:03;;;;;;;17.60;5.60;;;;;;;9.86;83.68;100202.53;5077391;28;20471;-66
2022/01/03 09:57:29;;;;;;;16.73;6.57;;;;;;;9.76;84.04;100192.06;5082621;28;20386;-66
2022/01/03 09:59:55;;;;;;;17.27;6.63;;;;;;;9.82;83.29;100192.97;5077977;28;20423;-68
2022/01/03 10:02:21;;;;;;;21.97;6.90;;;;;;;9.76;83.71;100192.06;5077905;28;20419;-67
2022/01/03 10:04:48;;;;;;;25.77;6.50;;;;;;;9.62;83.69;100188.56;5078117;28;20200;-68
2022/01/03 10:07:14;;;;;;;21.83;6.93;;;;;;;9.53;84.39;100197.19;5078366;28;20397;-66
2022/01/03 10:09:40;;;;;;;24.60;6.73;;;;;;;9.41;83.50;100197.97;5077989;28;20476;-67
2022/01/03 10:12:08;;;;;;;18.97;5.60;;;;;;;9.41;84.42;100192.78;5077745;28;20771;-67
2022/01/03 10:14:33;;;;;;;27.33;8.20;;;;;;;9.68;82.83;100187.72;5078292;28;20200;-66
2022/01/03 10:16:58;;;;;;;15.23;6.03;;;;;;;9.37;83.27;100190.16;5077881;28;20436;-67
2022/01/03 10:19:24;;;;;;;21.73;9.67;;;;;;;9.44;83.12;100187.63;5078045;28;20189;-66
2022/01/03 10:21:53;;;;;;;15.10;7.03;;;;;;;9.54;82.54;100187.63;5078489;28;20399;-67
2022/01/03 10:24:29;;;;;;;15.87;7.30;;;;;;;9.51;82.24;100177.22;5077041;28;20388;-68
2022/01/03 10:26:56;;;;;;;17.70;6.40;;;;;;;9.89;80.79;100184.31;5077866;28;20426;-67
2022/01/03 10:29:27;;;;;;;15.17;6.87;;;;;;;9.87;80.57;100181.72;5077827;28;20587;-68
2022/01/03 10:31:58;;;;;;;15.97;6.90;;;;;;;9.90;80.60;100183.47;5077729;28;20759;-67
2022/01/03 10:34:24;;;;;;;12.20;6.10;;;;;;;9.48;82.09;100183.28;5077884;28;20633;-67
2022/01/03 10:36:51;;;;;;;17.83;6.70;;;;;;;9.32;83.00;100184.91;5078105;28;20415;-68
2022/01/03 10:39:24;;;;;;;13.20;6.10;;;;;;;9.73;81.45;100183.41;5078185;28;20411;-66
2022/01/03 10:41:51;;;;;;;12.70;5.17;;;;;;;9.61;82.29;100179.88;5077177;28;20838;-66
2022/01/03 10:44:36;;;;;;;18.63;6.20;;;;;;;9.44;83.09;100174.59;5079000;28;20428;-67
2022/01/03 10:47:04;;;;;;;16.80;5.30;;;;;;;9.88;81.02;100167.84;5081422;28;20473;-66
2022/01/03 10:49:30;;;;;;;16.13;5.23;;;;;;;10.07;80.17;100176.56;5080591;28;20764;-66
2022/01/03 10:52:11;;;;;;;11.77;5.00;;;;;;;10.10;80.64;100173.97;5081258;28;20502;-66
2022/01/03 10:54:36;;;;;;;12.37;5.20;;;;;;;10.27;79.24;100171.41;5081160;28;20470;-67
2022/01/03 10:57:02;;;;;;;9.73;5.50;;;;;;;10.24;78.81;100165.31;5081356;28;20422;-67
2022/01/03 10:59:30;;;;;;;18.30;5.37;;;;;;;10.19;79.97;100172.22;5081284;28;20161;-66
2022/01/03 11:01:59;;;;;;;16.63;6.17;;;;;;;10.09;80.30;100177.44;5081649;28;20382;-70
2022/01/03 11:04:54;;;;;;;11.90;4.93;;;;;;;10.37;80.15;100166.25;5081015;28;20390;-63
2022/01/03 11:13:15;;;;;;;11.30;4.80;;;;;;;12.58;70.83;100142.00;5081286;28;20418;-66
2022/01/03 11:16:04;;;;;;;14.10;5.57;;;;;;;12.75;70.07;100144.47;5081123;28;20415;-66
2022/01/03 11:18:32;;;;;;;12.37;5.17;;;;;;;12.45;69.68;100142.09;5083372;28;20477;-65
2022/01/03 11:21:13;;;;;;;13.07;5.67;;;;;;;12.88;68.50;100142.59;5082395;28;20403;-63
2022/01/03 11:23:41;;;;;;;12.33;4.87;;;;;;;12.04;70.98;100138.03;5081339;28;20415;-67
2022/01/03 11:26:11;;;;;;;13.30;5.40;;;;;;;11.88;70.97;100136.34;5080933;28;20444;-63
2022/01/03 11:28:37;;;;;;;10.70;4.60;;;;;;;11.13;72.90;100122.72;5080809;28;20459;-69
2022/01/03 11:31:03;;;;;;;17.43;5.80;;;;;;;12.37;70.19;100112.53;5081389;28;20812;-63
2022/01/03 11:33:29;;;;;;;11.83;5.67;;;;;;;11.35;72.47;100128.75;5080491;28;20302;-67
2022/01/03 11:35:57;;;;;;;15.47;5.57;;;;;;;11.93;70.71;100117.19;5074327;28;20401;-71
2022/01/03 11:38:23;;;;;;;15.93;5.20;;;;;;;11.66;71.12;100126.00;5075117;28;20169;-67
2022/01/03 11:40:49;;;;;;;15.63;5.23;;;;;;;11.12;73.02;100114.03;5076890;28;20780;-67
2022/01/03 11:43:15;;;;;;;16.23;5.50;;;;;;;11.24;73.10;100120.09;5080355;28;20527;-69
2022/01/03 11:45:41;;;;;;;15.50;5.60;;;;;;;11.33;71.87;100114.84;5077197;28;20177;-69
2022/01/03 11:48:07;;;;;;;18.20;5.40;;;;;;;11.33;71.07;100113.97;5080063;28;20555;-68